createdAt,value
2018-12-31T00:01:46.398Z,82.79
2018-12-31T00:04:15.046Z,83.22
2018-12-31T00:06:43.572Z,83.03
2018-12-31T00:09:12.208Z,83.17
2018-12-31T00:11:43.722Z,83.32
2018-12-31T00:14:12.437Z,83.27
2018-12-31T00:16:41.155Z,83.04
2018-12-31T00:19:09.615Z,82.89
2018-12-31T00:21:38.096Z,82.94
2018-12-31T00:24:06.556Z,83.15
2018-12-31T00:26:35.035Z,83.15
2018-12-31T00:29:03.609Z,83.41
2018-12-31T00:31:32.146Z,83.41
2018-12-31T00:34:00.622Z,83.57
2018-12-31T00:36:29.189Z,83.59
2018-12-31T00:38:57.765Z,83.94
2018-12-31T00:41:26.245Z,83.88
2018-12-31T00:43:54.794Z,83.71
2018-12-31T00:46:23.394Z,83.81
2018-12-31T00:48:51.852Z,83.46
2018-12-31T00:51:23.198Z,83.35
2018-12-31T00:53:51.783Z,83.09
2018-12-31T00:56:20.271Z,83.07
2018-12-31T00:58:48.994Z,82.87
2018-12-31T01:01:17.603Z,82.88
2018-12-31T01:03:46.079Z,82.94
2018-12-31T01:06:14.771Z,83.30
2018-12-31T01:08:43.377Z,83.24
2018-12-31T01:11:11.858Z,83.27
2018-12-31T01:13:40.414Z,83.15
2018-12-31T01:16:08.959Z,83.31
2018-12-31T01:18:37.460Z,83.23
2018-12-31T01:21:06.006Z,83.38
2018-12-31T01:23:34.519Z,83.39
2018-12-31T01:26:03.078Z,83.35
2018-12-31T01:28:31.532Z,83.43
2018-12-31T01:31:02.588Z,83.42
2018-12-31T01:33:31.190Z,83.30
2018-12-31T01:35:59.799Z,83.41
2018-12-31T01:38:28.462Z,83.28
2018-12-31T01:40:57.100Z,83.24
2018-12-31T01:43:25.764Z,83.24
2018-12-31T01:45:54.246Z,83.39
2018-12-31T01:48:22.715Z,83.76
2018-12-31T01:50:51.252Z,83.76
2018-12-31T01:53:20.055Z,84.21
2018-12-31T01:55:48.589Z,84.63
2018-12-31T01:58:17.196Z,84.44
2018-12-31T02:00:45.699Z,84.80
2018-12-31T02:03:14.179Z,84.89
2018-12-31T02:05:42.744Z,85.14
2018-12-31T02:08:11.300Z,86.16
2018-12-31T02:10:39.808Z,86.34
2018-12-31T02:13:08.262Z,85.96
2018-12-31T02:15:36.874Z,86.02
2018-12-31T02:18:05.458Z,87.34
2018-12-31T02:20:34.228Z,87.02
2018-12-31T02:23:02.956Z,87.78
2018-12-31T02:25:31.648Z,87.78
2018-12-31T02:28:00.125Z,87.63
2018-12-31T02:30:28.761Z,86.91
2018-12-31T02:32:58.779Z,86.91
2018-12-31T02:35:27.204Z,87.17
2018-12-31T02:37:55.690Z,87.09
2018-12-31T02:40:24.228Z,87.27
2018-12-31T02:42:52.812Z,87.19
2018-12-31T02:45:21.296Z,87.13
2018-12-31T02:47:49.760Z,87.88
2018-12-31T02:50:18.319Z,88.07
2018-12-31T02:52:46.792Z,87.96
2018-12-31T02:55:15.416Z,88.02
2018-12-31T02:57:43.876Z,87.72
2018-12-31T03:00:12.593Z,87.70
2018-12-31T03:02:41.204Z,87.70
2018-12-31T03:05:09.770Z,88.12
2018-12-31T03:07:40.950Z,88.40
2018-12-31T03:10:10.110Z,88.47
2018-12-31T03:12:38.721Z,88.58
2018-12-31T03:15:07.342Z,88.94
2018-12-31T03:17:35.880Z,88.96
2018-12-31T03:20:04.733Z,88.89
2018-12-31T03:22:33.464Z,88.50
2018-12-31T03:25:02.020Z,88.50
2018-12-31T03:27:34.355Z,88.87
2018-12-31T03:30:05.836Z,89.29
2018-12-31T03:32:34.388Z,89.13
2018-12-31T03:35:03.111Z,88.62
2018-12-31T03:37:31.834Z,89.42
2018-12-31T03:40:00.497Z,89.40
2018-12-31T03:42:29.106Z,89.02
2018-12-31T03:44:57.619Z,89.74
2018-12-31T03:47:26.364Z,89.72
2018-12-31T03:49:54.839Z,89.40
2018-12-31T03:52:23.527Z,89.10
2018-12-31T03:54:52.079Z,88.89
2018-12-31T03:57:20.633Z,88.66
2018-12-31T03:59:49.141Z,88.86
2018-12-31T04:02:17.802Z,88.75
2018-12-31T04:04:46.395Z,88.32
2018-12-31T04:07:15.407Z,88.68
2018-12-31T04:09:43.985Z,88.65
2018-12-31T04:12:12.470Z,89.08
2018-12-31T04:14:40.950Z,89.14
2018-12-31T04:17:09.593Z,89.17
2018-12-31T04:19:38.100Z,89.34
2018-12-31T04:22:06.558Z,89.44
2018-12-31T04:24:35.103Z,89.71
2018-12-31T04:27:03.612Z,89.40
2018-12-31T04:29:32.077Z,89.30
2018-12-31T04:32:00.519Z,89.29
2018-12-31T04:34:28.985Z,89.93
2018-12-31T04:36:57.505Z,89.92
2018-12-31T04:39:26.011Z,89.66
2018-12-31T04:41:55.479Z,89.47
2018-12-31T04:44:24.093Z,90.03
2018-12-31T04:46:52.551Z,90.03
2018-12-31T04:49:21.060Z,90.17
2018-12-31T04:51:49.608Z,90.33
2018-12-31T04:54:18.099Z,90.32
2018-12-31T04:56:46.961Z,90.27
2018-12-31T04:59:15.717Z,90.39
2018-12-31T05:01:44.288Z,90.44
2018-12-31T05:04:12.754Z,90.51
2018-12-31T05:06:41.402Z,90.30
2018-12-31T05:09:09.882Z,90.22
2018-12-31T05:11:38.389Z,89.95
2018-12-31T05:14:06.908Z,89.70
2018-12-31T05:16:35.401Z,89.38
2018-12-31T05:19:03.968Z,89.50
2018-12-31T05:21:32.458Z,89.50
2018-12-31T05:24:01.043Z,90.17
2018-12-31T05:26:29.729Z,90.17
2018-12-31T05:28:58.284Z,90.15
2018-12-31T05:31:26.792Z,90.45
2018-12-31T05:33:55.247Z,90.45
2018-12-31T05:36:23.707Z,90.97
2018-12-31T05:38:52.183Z,90.71
2018-12-31T05:41:20.648Z,90.80
2018-12-31T05:43:49.101Z,91.09
2018-12-31T05:46:17.591Z,90.74
2018-12-31T05:48:46.033Z,90.72
2018-12-31T05:51:14.655Z,90.24
2018-12-31T05:53:43.201Z,90.52
2018-12-31T05:56:11.693Z,90.63
2018-12-31T05:58:40.291Z,90.69
2018-12-31T06:01:08.847Z,90.61
2018-12-31T06:03:37.465Z,90.55
2018-12-31T06:06:06.314Z,90.71
2018-12-31T06:08:34.870Z,90.73
2018-12-31T06:11:03.455Z,90.59
2018-12-31T06:13:31.905Z,90.69
2018-12-31T06:16:00.444Z,90.45
2018-12-31T06:18:28.959Z,90.17
2018-12-31T06:20:57.593Z,90.33
2018-12-31T06:23:26.119Z,90.30
2018-12-31T06:25:54.599Z,90.29
2018-12-31T06:28:23.054Z,90.06
2018-12-31T06:30:51.540Z,90.17
2018-12-31T06:33:20.044Z,90.20
2018-12-31T06:35:48.501Z,90.21
2018-12-31T06:38:17.011Z,90.56
2018-12-31T06:40:47.182Z,90.74
2018-12-31T06:43:15.993Z,90.49
2018-12-31T06:45:44.501Z,90.52
2018-12-31T06:48:13.770Z,90.52
2018-12-31T06:50:42.251Z,90.64
2018-12-31T06:53:10.736Z,90.41
2018-12-31T06:55:39.237Z,90.23
2018-12-31T06:58:09.312Z,90.62
2018-12-31T07:00:37.735Z,90.46
2018-12-31T07:03:06.299Z,90.54
2018-12-31T07:05:34.803Z,90.55
2018-12-31T07:08:03.261Z,90.45
2018-12-31T07:10:31.846Z,90.33
2018-12-31T07:13:00.309Z,90.23
2018-12-31T07:15:28.726Z,90.03
2018-12-31T07:17:57.196Z,89.97
2018-12-31T07:20:25.692Z,90.04
2018-12-31T07:22:54.338Z,90.36
2018-12-31T07:25:22.805Z,90.61
2018-12-31T07:27:51.288Z,90.44
2018-12-31T07:30:19.798Z,90.25
2018-12-31T07:32:48.283Z,90.13
2018-12-31T07:35:16.906Z,90.73
2018-12-31T07:37:45.356Z,90.89
2018-12-31T07:40:13.951Z,91.05
2018-12-31T07:42:42.433Z,90.93
2018-12-31T07:45:10.969Z,91.39
2018-12-31T07:47:39.413Z,91.38
2018-12-31T07:50:07.880Z,91.43
2018-12-31T07:52:36.370Z,91.93
2018-12-31T07:55:05.170Z,91.96
2018-12-31T07:57:33.880Z,91.89
2018-12-31T08:00:02.480Z,92.03
2018-12-31T08:02:31.057Z,92.13
2018-12-31T08:04:59.864Z,92.29
2018-12-31T08:07:28.640Z,92.12
2018-12-31T08:09:57.154Z,92.57
2018-12-31T08:12:25.719Z,92.47
2018-12-31T08:14:54.176Z,92.44
2018-12-31T08:17:22.621Z,92.68
2018-12-31T08:19:51.105Z,92.74
2018-12-31T08:22:19.594Z,92.63
2018-12-31T08:24:48.068Z,92.95
2018-12-31T08:27:16.602Z,93.01
2018-12-31T08:29:45.109Z,92.79
2018-12-31T08:32:14.512Z,92.78
2018-12-31T08:34:43.086Z,92.93
2018-12-31T08:37:11.550Z,92.72
2018-12-31T08:39:40.155Z,93.04
2018-12-31T08:42:08.667Z,92.56
2018-12-31T08:44:37.351Z,92.93
2018-12-31T08:47:06.043Z,92.91
2018-12-31T08:49:36.187Z,92.87
2018-12-31T08:52:04.880Z,92.88
2018-12-31T08:54:33.353Z,93.10
2018-12-31T08:57:01.859Z,92.92
2018-12-31T08:59:30.395Z,93.06
2018-12-31T09:01:58.895Z,92.88
2018-12-31T09:04:27.375Z,92.60
2018-12-31T09:06:55.913Z,92.67
2018-12-31T09:09:24.462Z,92.42
2018-12-31T09:11:52.967Z,92.91
2018-12-31T09:14:21.431Z,92.61
2018-12-31T09:16:52.042Z,92.65
2018-12-31T09:19:20.614Z,92.59
2018-12-31T09:21:49.226Z,92.79
2018-12-31T09:24:17.807Z,92.91
2018-12-31T09:26:46.293Z,93.07
2018-12-31T09:29:14.977Z,92.96
2018-12-31T09:31:43.767Z,92.86
2018-12-31T09:34:12.316Z,92.85
2018-12-31T09:36:40.907Z,92.78
2018-12-31T09:39:09.465Z,92.86
2018-12-31T09:41:38.005Z,92.85
2018-12-31T09:44:06.568Z,92.82
2018-12-31T09:46:35.098Z,92.79
2018-12-31T09:49:03.579Z,92.58
2018-12-31T09:51:32.059Z,92.97
2018-12-31T09:54:00.693Z,92.83
2018-12-31T09:56:29.217Z,92.55
2018-12-31T09:58:57.816Z,92.79
2018-12-31T10:01:26.374Z,92.86
2018-12-31T10:03:54.950Z,92.61
2018-12-31T10:06:23.530Z,92.45
2018-12-31T10:08:53.466Z,92.61
2018-12-31T10:11:21.934Z,92.50
2018-12-31T10:13:50.511Z,92.62
2018-12-31T10:16:19.162Z,92.38
2018-12-31T10:18:48.000Z,92.19
2018-12-31T10:21:16.622Z,92.33
2018-12-31T10:23:45.157Z,92.33
2018-12-31T10:26:13.741Z,92.25
2018-12-31T10:28:42.227Z,92.35
2018-12-31T10:31:10.944Z,92.55
2018-12-31T10:33:39.416Z,92.24
2018-12-31T10:36:08.068Z,92.08
2018-12-31T10:38:36.610Z,92.05
2018-12-31T10:41:05.076Z,92.02
2018-12-31T10:43:33.569Z,91.87
2018-12-31T10:46:02.087Z,91.62
2018-12-31T10:48:30.585Z,91.46
2018-12-31T10:50:59.093Z,90.97
2018-12-31T10:53:27.741Z,90.74
2018-12-31T10:55:56.704Z,90.78
2018-12-31T10:58:25.397Z,90.29
2018-12-31T11:00:54.040Z,90.41
2018-12-31T11:03:22.581Z,90.36
2018-12-31T11:05:51.148Z,90.52
2018-12-31T11:08:19.729Z,90.48
2018-12-31T11:10:48.273Z,90.26
2018-12-31T11:13:16.896Z,90.60
2018-12-31T11:15:45.460Z,90.40
2018-12-31T11:18:14.148Z,90.38
2018-12-31T11:20:42.729Z,90.36
2018-12-31T11:23:12.242Z,90.30
2018-12-31T11:25:40.727Z,90.28
2018-12-31T11:28:09.213Z,90.33
2018-12-31T11:30:37.715Z,90.24
2018-12-31T11:33:06.519Z,90.11
2018-12-31T11:35:35.257Z,90.37
2018-12-31T11:38:03.818Z,90.67
2018-12-31T11:40:32.417Z,90.34
2018-12-31T11:43:00.997Z,90.66
2018-12-31T11:45:29.485Z,90.78
2018-12-31T11:47:58.070Z,90.85
2018-12-31T11:50:26.547Z,90.89
2018-12-31T11:52:55.017Z,91.11
2018-12-31T11:55:23.554Z,91.08
2018-12-31T12:04:12.712Z,89.86
2018-12-31T12:06:41.196Z,89.96
2018-12-31T12:09:09.808Z,90.14
2018-12-31T12:11:38.346Z,89.69
2018-12-31T12:14:06.840Z,89.72
2018-12-31T12:16:35.402Z,89.79
2018-12-31T12:19:03.983Z,89.92
2018-12-31T12:21:32.427Z,89.67
2018-12-31T12:24:00.927Z,89.66
2018-12-31T12:26:29.411Z,89.66
2018-12-31T12:28:57.879Z,89.93
2018-12-31T12:31:26.317Z,89.86
2018-12-31T12:33:54.763Z,89.91
2018-12-31T12:36:23.244Z,90.27
2018-12-31T12:38:51.675Z,90.31
2018-12-31T12:41:20.161Z,90.26
2018-12-31T12:43:48.611Z,89.92
2018-12-31T12:46:17.145Z,90.06
2018-12-31T12:48:45.647Z,90.37
2018-12-31T12:51:14.119Z,90.69
2018-12-31T12:53:42.724Z,90.59
2018-12-31T12:56:12.716Z,90.40
2018-12-31T12:58:41.269Z,90.61
2018-12-31T13:01:09.733Z,90.92
2018-12-31T13:03:38.170Z,90.48
2018-12-31T13:06:06.628Z,90.30
2018-12-31T13:08:35.056Z,90.44
2018-12-31T13:11:03.671Z,90.27
2018-12-31T13:13:32.130Z,91.14
2018-12-31T13:16:00.574Z,91.22
2018-12-31T13:18:29.137Z,91.41
2018-12-31T13:20:57.556Z,91.12
2018-12-31T13:23:26.407Z,91.43
2018-12-31T13:25:54.893Z,90.94
2018-12-31T13:28:23.332Z,90.98
2018-12-31T13:30:51.860Z,90.97
2018-12-31T13:33:20.331Z,91.01
2018-12-31T13:35:49.125Z,91.32
2018-12-31T13:38:17.760Z,91.61
2018-12-31T13:40:46.231Z,91.71
2018-12-31T13:43:14.834Z,91.80
2018-12-31T13:45:43.382Z,92.15
2018-12-31T13:48:11.844Z,92.00
2018-12-31T13:50:40.339Z,92.09
2018-12-31T13:53:08.805Z,92.10
2018-12-31T13:55:37.267Z,92.40
2018-12-31T13:58:05.719Z,92.40
2018-12-31T14:00:35.019Z,92.37
2018-12-31T14:03:03.497Z,91.97
2018-12-31T14:05:31.925Z,92.29
2018-12-31T14:08:00.400Z,92.36
2018-12-31T14:10:28.922Z,92.55
2018-12-31T14:12:57.349Z,92.74
2018-12-31T14:15:25.863Z,92.45
2018-12-31T14:17:54.381Z,92.56
2018-12-31T14:20:22.834Z,93.17
2018-12-31T14:22:51.405Z,93.17
2018-12-31T14:25:19.852Z,92.75
2018-12-31T14:27:48.285Z,92.96
2018-12-31T14:30:17.013Z,93.00
2018-12-31T14:32:45.529Z,92.78
2018-12-31T14:35:13.972Z,92.91
2018-12-31T14:37:42.417Z,93.14
2018-12-31T14:40:10.894Z,93.01
2018-12-31T14:42:39.351Z,92.85
2018-12-31T14:45:07.835Z,93.00
2018-12-31T14:47:36.299Z,92.89
2018-12-31T14:50:05.962Z,92.80
2018-12-31T14:52:34.590Z,92.68
2018-12-31T14:55:03.094Z,92.66
2018-12-31T14:57:31.605Z,92.78
2018-12-31T15:00:00.169Z,92.90
2018-12-31T15:02:28.625Z,92.60
2018-12-31T15:04:57.463Z,92.59
2018-12-31T15:07:25.920Z,92.44
2018-12-31T15:09:54.347Z,92.43
2018-12-31T15:12:22.857Z,92.16
2018-12-31T15:14:51.300Z,92.09
2018-12-31T15:17:19.918Z,91.99
2018-12-31T15:19:48.530Z,92.04
2018-12-31T15:22:17.010Z,91.87
2018-12-31T15:24:45.459Z,91.43
2018-12-31T15:27:13.922Z,91.43
2018-12-31T15:29:42.385Z,91.17
2018-12-31T15:32:10.869Z,91.11
2018-12-31T15:34:39.412Z,90.96
2018-12-31T15:37:08.008Z,90.92
2018-12-31T15:39:36.603Z,90.74
2018-12-31T15:42:05.140Z,90.55
2018-12-31T15:44:33.582Z,90.59
2018-12-31T15:47:02.100Z,90.63
2018-12-31T15:49:32.037Z,90.50
2018-12-31T15:52:00.540Z,90.18
2018-12-31T15:54:29.115Z,90.13
2018-12-31T15:56:57.631Z,90.04
2018-12-31T15:59:26.314Z,89.76
2018-12-31T16:01:54.778Z,89.82
2018-12-31T16:04:23.232Z,89.69
2018-12-31T16:06:51.717Z,89.67
2018-12-31T16:09:20.596Z,89.82
2018-12-31T16:11:49.114Z,89.82
2018-12-31T16:14:17.726Z,89.73
2018-12-31T16:16:46.181Z,89.94
2018-12-31T16:19:14.792Z,89.89
2018-12-31T16:21:43.532Z,89.99
2018-12-31T16:24:12.013Z,89.77
2018-12-31T16:26:40.494Z,89.48
2018-12-31T16:29:08.961Z,89.29
2018-12-31T16:31:37.508Z,89.25
2018-12-31T16:34:05.927Z,89.11
2018-12-31T16:36:34.423Z,89.19
2018-12-31T16:39:03.826Z,89.17
2018-12-31T16:41:32.284Z,89.28
2018-12-31T16:44:00.794Z,88.95
2018-12-31T16:46:29.229Z,88.72
2018-12-31T16:48:57.661Z,88.71
2018-12-31T16:51:26.216Z,88.60
2018-12-31T16:53:54.641Z,88.72
2018-12-31T16:56:23.084Z,88.82
2018-12-31T16:58:51.545Z,88.92
2018-12-31T17:01:20.267Z,88.92
2018-12-31T17:03:48.724Z,88.87
2018-12-31T17:06:17.230Z,88.64
2018-12-31T17:08:45.726Z,88.62
2018-12-31T17:11:14.177Z,88.53
2018-12-31T17:13:42.690Z,88.38
2018-12-31T17:16:11.210Z,88.49
2018-12-31T17:18:39.716Z,88.68
2018-12-31T17:21:08.146Z,88.78
2018-12-31T17:23:36.625Z,88.47
2018-12-31T17:26:05.157Z,88.48
2018-12-31T17:28:33.586Z,88.45
2018-12-31T17:31:02.071Z,88.41
2018-12-31T17:33:30.499Z,88.32
2018-12-31T17:35:58.932Z,88.32
2018-12-31T17:38:27.387Z,88.36
2018-12-31T17:40:56.116Z,88.31
2018-12-31T17:43:24.934Z,88.23
2018-12-31T17:45:53.365Z,88.26
2018-12-31T17:48:21.872Z,88.29
2018-12-31T17:50:50.336Z,88.45
2018-12-31T17:53:18.781Z,88.33
2018-12-31T17:55:47.244Z,88.36
2018-12-31T17:58:15.675Z,88.37
2018-12-31T18:00:44.334Z,88.55
2018-12-31T18:03:13.747Z,88.59
2018-12-31T18:05:42.227Z,88.62
2018-12-31T18:08:10.722Z,88.49
2018-12-31T18:10:39.304Z,88.47
2018-12-31T18:13:07.845Z,88.33
2018-12-31T18:15:36.366Z,88.40
2018-12-31T18:18:04.963Z,88.19
2018-12-31T18:20:33.675Z,88.14
2018-12-31T18:23:02.295Z,87.80
2018-12-31T18:25:31.110Z,87.95
2018-12-31T18:27:59.605Z,88.11
2018-12-31T18:30:28.111Z,88.17
2018-12-31T18:32:56.802Z,88.20
2018-12-31T18:35:25.436Z,88.14
2018-12-31T18:37:53.918Z,88.25
2018-12-31T18:40:22.484Z,88.04
2018-12-31T18:42:50.958Z,87.95
2018-12-31T18:45:19.776Z,87.82
2018-12-31T18:47:48.226Z,87.92
2018-12-31T18:50:16.707Z,87.79
2018-12-31T18:52:45.158Z,87.83
2018-12-31T18:55:13.747Z,88.01
2018-12-31T18:57:42.585Z,88.03
2018-12-31T19:00:11.357Z,88.06
2018-12-31T19:02:40.019Z,87.97
2018-12-31T19:05:08.451Z,88.30
2018-12-31T19:07:36.932Z,88.31
2018-12-31T19:10:06.199Z,88.48
2018-12-31T19:12:34.681Z,88.55
2018-12-31T19:15:03.218Z,88.35
2018-12-31T19:17:31.686Z,88.43
2018-12-31T19:20:00.355Z,88.31
2018-12-31T19:22:28.824Z,88.06
2018-12-31T19:24:57.809Z,87.80
2018-12-31T19:27:26.273Z,87.46
2018-12-31T19:29:54.721Z,86.63
2018-12-31T19:32:23.325Z,86.28
2018-12-31T19:34:51.932Z,86.12
2018-12-31T19:37:20.449Z,86.41
2018-12-31T19:39:49.094Z,86.23
2018-12-31T19:42:17.821Z,86.19
2018-12-31T19:44:46.429Z,86.25
2018-12-31T19:47:14.981Z,86.41
2018-12-31T19:49:43.446Z,86.67
2018-12-31T19:52:12.043Z,86.80
2018-12-31T19:54:40.737Z,86.77
2018-12-31T19:57:09.321Z,86.54
2018-12-31T19:59:38.047Z,86.36
2018-12-31T20:02:06.533Z,86.42
2018-12-31T20:04:35.270Z,86.51
2018-12-31T20:07:03.800Z,86.46
2018-12-31T20:09:32.301Z,86.52
2018-12-31T20:12:00.721Z,86.41
2018-12-31T20:14:29.269Z,86.08
2018-12-31T20:16:57.856Z,86.08
2018-12-31T20:19:26.479Z,85.96
2018-12-31T20:21:55.001Z,86.22
2018-12-31T20:24:23.607Z,86.08
2018-12-31T20:26:52.175Z,86.17
2018-12-31T20:29:20.719Z,85.91
2018-12-31T20:31:49.459Z,85.52
2018-12-31T20:34:19.649Z,85.20
2018-12-31T20:36:48.142Z,85.02
2018-12-31T20:39:16.726Z,84.93
2018-12-31T20:41:46.900Z,84.67
2018-12-31T20:44:15.338Z,84.44
2018-12-31T20:46:43.803Z,84.26
2018-12-31T20:49:12.325Z,84.20
2018-12-31T20:51:40.921Z,84.06
2018-12-31T20:54:09.395Z,84.00
2018-12-31T20:56:37.894Z,83.95
2018-12-31T20:59:06.379Z,83.45
2018-12-31T21:01:34.824Z,83.08
2018-12-31T21:04:03.376Z,82.79
2018-12-31T21:06:31.908Z,82.73
2018-12-31T21:09:00.499Z,82.88
2018-12-31T21:11:29.032Z,82.97
2018-12-31T21:13:57.487Z,83.17
2018-12-31T21:16:27.806Z,82.98
2018-12-31T21:18:56.389Z,82.93
2018-12-31T21:21:24.900Z,82.61
2018-12-31T21:23:53.414Z,82.54
2018-12-31T21:26:22.047Z,82.28
2018-12-31T21:28:50.716Z,82.12
2018-12-31T21:31:19.298Z,82.01
2018-12-31T21:33:47.896Z,81.81
2018-12-31T21:36:17.492Z,81.74
2018-12-31T21:38:45.940Z,81.42
2018-12-31T21:41:14.482Z,81.21
2018-12-31T21:43:43.070Z,80.90
2018-12-31T21:46:11.666Z,80.95
2018-12-31T21:48:40.273Z,80.61
2018-12-31T21:51:08.798Z,80.38
2018-12-31T21:53:37.673Z,80.06
2018-12-31T21:56:06.243Z,79.73
2018-12-31T21:58:34.815Z,79.49
2018-12-31T22:01:03.237Z,79.23
2018-12-31T22:03:31.696Z,78.93
2018-12-31T22:06:00.209Z,79.00
2018-12-31T22:08:28.750Z,79.49
2018-12-31T22:10:57.256Z,79.45
2018-12-31T22:13:25.832Z,80.21
2018-12-31T22:15:54.317Z,79.94
2018-12-31T22:18:22.813Z,79.80
2018-12-31T22:20:51.273Z,79.80
2018-12-31T22:23:19.727Z,79.76
2018-12-31T22:25:48.423Z,79.53
2018-12-31T22:28:16.880Z,79.58
2018-12-31T22:30:45.484Z,79.31
2018-12-31T22:33:14.586Z,79.18
2018-12-31T22:35:43.156Z,78.70
2018-12-31T22:38:11.677Z,78.71
2018-12-31T22:40:40.142Z,78.70
2018-12-31T22:43:09.532Z,78.15
2018-12-31T22:45:38.073Z,77.92
2018-12-31T22:48:06.615Z,78.07
2018-12-31T22:50:35.135Z,77.89
2018-12-31T22:53:03.645Z,77.63
2018-12-31T22:55:32.271Z,77.61
2018-12-31T22:58:00.749Z,77.18
2018-12-31T23:00:29.968Z,77.18
2018-12-31T23:02:58.418Z,77.07
2018-12-31T23:05:27.084Z,77.12
2018-12-31T23:07:55.579Z,76.60
2018-12-31T23:10:24.088Z,76.55
2018-12-31T23:12:52.677Z,76.65
2018-12-31T23:15:21.515Z,76.81
2018-12-31T23:17:50.211Z,76.61
2018-12-31T23:20:18.673Z,76.66
2018-12-31T23:22:48.265Z,75.95
2018-12-31T23:25:16.854Z,75.65
2018-12-31T23:27:45.435Z,75.63
2018-12-31T23:30:13.976Z,75.64
2018-12-31T23:32:42.518Z,75.60
2018-12-31T23:35:11.045Z,75.82
2018-12-31T23:37:40.097Z,75.74
2018-12-31T23:40:09.597Z,75.93
2018-12-31T23:42:38.069Z,76.24
2018-12-31T23:45:09.348Z,76.52
2018-12-31T23:47:37.949Z,76.74
2018-12-31T23:50:08.891Z,77.13
2018-12-31T23:52:37.333Z,77.46
2018-12-31T23:55:07.142Z,77.74
2018-12-31T23:57:35.709Z,77.87
